createdAt,value
2018-03-22T00:01:57.209Z,16.10
2018-03-22T00:04:24.753Z,15.33
2018-03-22T00:06:52.327Z,15.53
2018-03-22T00:09:19.870Z,15.77
2018-03-22T00:11:47.430Z,15.03
2018-03-22T00:14:15.351Z,15.73
2018-03-22T00:16:42.913Z,15.27
2018-03-22T00:19:10.468Z,16.57
2018-03-22T00:21:38.046Z,16.10
2018-03-22T00:24:05.567Z,16.53
2018-03-22T00:26:33.120Z,15.57
2018-03-22T00:29:00.681Z,17.57
2018-03-22T00:31:28.524Z,16.00
2018-03-22T00:33:56.113Z,17.63
2018-03-22T00:36:23.674Z,16.77
2018-03-22T00:38:51.249Z,16.10
2018-03-22T00:41:19.002Z,16.40
2018-03-22T00:43:46.565Z,16.90
2018-03-22T00:46:14.113Z,16.60
2018-03-22T00:48:41.980Z,16.93
2018-03-22T00:51:09.547Z,15.87
2018-03-22T00:53:37.067Z,15.40
2018-03-22T00:56:05.275Z,15.93
2018-03-22T00:58:32.843Z,16.03
2018-03-22T01:01:00.404Z,15.20
2018-03-22T01:03:28.250Z,16.10
2018-03-22T01:05:55.783Z,15.80
2018-03-22T01:08:23.384Z,15.13
2018-03-22T01:10:50.909Z,15.83
2018-03-22T01:13:18.476Z,15.90
2018-03-22T01:15:46.067Z,15.63
2018-03-22T01:18:13.917Z,16.57
2018-03-22T01:20:41.464Z,16.43
2018-03-22T01:23:09.348Z,17.03
2018-03-22T01:25:36.868Z,16.73
2018-03-22T01:28:04.436Z,15.97
2018-03-22T01:30:42.800Z,15.97
2018-03-22T01:33:10.380Z,16.50
2018-03-22T01:35:37.911Z,16.67
2018-03-22T01:38:05.443Z,16.73
2018-03-22T01:40:32.967Z,16.50
2018-03-22T01:43:00.473Z,16.40
2018-03-22T01:45:27.997Z,17.43
2018-03-22T01:47:55.914Z,16.33
2018-03-22T01:50:23.462Z,16.80
2018-03-22T01:53:02.874Z,16.60
2018-03-22T01:55:30.387Z,16.63
2018-03-22T01:57:57.944Z,16.57
2018-03-22T02:00:25.534Z,16.37
2018-03-22T02:02:53.037Z,16.00
2018-03-22T02:05:20.541Z,16.90
2018-03-22T02:07:48.371Z,17.70
2018-03-22T02:10:15.886Z,15.60
2018-03-22T02:12:43.454Z,16.10
2018-03-22T02:15:11.269Z,17.40
2018-03-22T02:17:38.794Z,17.40
2018-03-22T02:20:06.341Z,17.00
2018-03-22T02:22:33.924Z,16.10
2018-03-22T02:25:01.456Z,17.60
2018-03-22T02:27:28.969Z,16.00
2018-03-22T02:29:56.506Z,17.53
2018-03-22T02:32:24.028Z,17.10
2018-03-22T02:34:51.640Z,15.37
2018-03-22T02:37:19.186Z,17.70
2018-03-22T02:39:46.748Z,16.63
2018-03-22T02:42:14.270Z,16.60
2018-03-22T02:44:41.809Z,17.83
2018-03-22T02:47:09.346Z,16.17
2018-03-22T02:49:36.861Z,18.20
2018-03-22T02:52:04.427Z,15.90
2018-03-22T02:54:31.951Z,17.10
2018-03-22T02:56:59.495Z,17.27
2018-03-22T02:59:27.036Z,16.40
2018-03-22T03:01:54.545Z,16.93
2018-03-22T03:04:22.046Z,16.83
2018-03-22T03:06:49.587Z,16.40
2018-03-22T03:09:17.125Z,16.90
2018-03-22T03:11:44.686Z,16.80
2018-03-22T03:14:12.196Z,17.70
2018-03-22T03:16:39.700Z,16.57
2018-03-22T03:19:07.531Z,15.40
2018-03-22T03:21:35.074Z,18.33
2018-03-22T03:24:02.578Z,16.43
2018-03-22T03:26:30.090Z,17.17
2018-03-22T03:28:57.669Z,16.03
2018-03-22T03:31:25.189Z,17.00
2018-03-22T03:33:52.778Z,16.13
2018-03-22T03:36:20.559Z,16.67
2018-03-22T03:38:48.076Z,16.27
2018-03-22T03:41:15.822Z,17.10
2018-03-22T03:43:43.392Z,17.07
2018-03-22T03:46:10.903Z,17.10
2018-03-22T03:48:38.414Z,17.57
2018-03-22T03:51:05.939Z,16.23
2018-03-22T03:53:33.443Z,16.50
2018-03-22T03:56:01.000Z,17.50
2018-03-22T03:58:28.810Z,18.03
2018-03-22T04:00:56.325Z,17.13
2018-03-22T04:03:23.862Z,16.60
2018-03-22T04:05:51.407Z,17.10
2018-03-22T04:08:18.975Z,18.63
2018-03-22T04:10:46.482Z,17.03
2018-03-22T04:13:14.030Z,17.63
2018-03-22T04:15:41.529Z,17.17
2018-03-22T04:18:09.086Z,17.83
2018-03-22T04:20:36.637Z,16.60
2018-03-22T04:23:04.152Z,18.17
2018-03-22T04:25:31.709Z,17.13
2018-03-22T04:27:59.550Z,17.37
2018-03-22T04:30:27.064Z,16.70
2018-03-22T04:32:54.596Z,18.33
2018-03-22T04:35:22.157Z,18.57
2018-03-22T04:37:49.685Z,19.07
2018-03-22T04:40:17.447Z,17.70
2018-03-22T04:42:44.989Z,18.50
2018-03-22T04:45:12.498Z,19.90
2018-03-22T04:47:40.012Z,18.60
2018-03-22T04:50:07.579Z,18.73
2018-03-22T04:52:35.107Z,18.30
2018-03-22T04:55:02.620Z,19.00
2018-03-22T04:57:30.175Z,19.23
2018-03-22T04:59:57.931Z,18.63
2018-03-22T05:02:25.492Z,18.33
2018-03-22T05:04:53.049Z,18.57
2018-03-22T05:07:20.569Z,19.00
2018-03-22T05:09:48.110Z,18.23
2018-03-22T05:12:15.696Z,19.10
2018-03-22T05:14:43.218Z,19.23
2018-03-22T05:17:10.725Z,19.50
2018-03-22T05:19:38.260Z,19.87
2018-03-22T05:22:05.794Z,19.50
2018-03-22T05:24:33.350Z,19.37
2018-03-22T05:27:00.911Z,19.40
2018-03-22T05:29:28.782Z,19.77
2018-03-22T05:31:56.291Z,20.43
2018-03-22T05:34:23.836Z,20.20
2018-03-22T05:36:51.345Z,20.33
2018-03-22T05:39:18.868Z,20.43
2018-03-22T05:41:46.407Z,20.80
2018-03-22T05:44:13.934Z,21.70
2018-03-22T05:46:41.538Z,20.80
2018-03-22T05:49:09.113Z,20.57
2018-03-22T05:51:36.658Z,21.63
2018-03-22T05:54:04.589Z,19.60
2018-03-22T05:56:32.149Z,21.60
2018-03-22T05:58:59.707Z,19.73
2018-03-22T06:01:27.314Z,21.60
2018-03-22T06:03:54.863Z,21.00
2018-03-22T06:06:22.384Z,21.90
2018-03-22T06:08:49.973Z,21.50
2018-03-22T06:11:17.512Z,20.83
2018-03-22T06:13:45.060Z,22.17
2018-03-22T06:16:12.597Z,21.53
2018-03-22T06:18:40.437Z,21.17
2018-03-22T06:21:07.963Z,22.13
2018-03-22T06:23:35.494Z,20.20
2018-03-22T06:26:03.022Z,21.40
2018-03-22T06:28:30.870Z,21.37
2018-03-22T06:30:58.701Z,22.13
2018-03-22T06:33:26.244Z,21.83
2018-03-22T06:35:53.761Z,22.37
2018-03-22T06:38:21.283Z,22.07
2018-03-22T06:40:48.857Z,24.70
2018-03-22T06:43:16.367Z,22.60
2018-03-22T06:45:44.166Z,24.43
2018-03-22T06:48:11.709Z,24.33
2018-03-22T06:50:39.505Z,23.90
2018-03-22T06:53:07.032Z,23.27
2018-03-22T06:55:34.835Z,22.20
2018-03-22T06:58:02.354Z,22.83
2018-03-22T07:00:30.143Z,22.10
2018-03-22T07:02:57.726Z,23.63
2018-03-22T07:05:25.457Z,22.00
2018-03-22T07:07:52.983Z,22.60
2018-03-22T07:10:20.547Z,21.17
2018-03-22T07:12:48.053Z,21.73
2018-03-22T07:15:15.560Z,22.20
2018-03-22T07:17:43.107Z,21.30
2018-03-22T07:20:10.600Z,22.93
2018-03-22T07:22:38.093Z,21.87
2018-03-22T07:25:05.716Z,21.87
2018-03-22T07:27:33.233Z,22.07
2018-03-22T07:30:00.994Z,21.77
2018-03-22T07:32:28.702Z,23.83
2018-03-22T07:34:56.217Z,22.13
2018-03-22T07:37:23.794Z,22.00
2018-03-22T07:39:51.386Z,21.13
2018-03-22T07:42:18.905Z,21.93
2018-03-22T07:44:49.403Z,21.60
2018-03-22T07:47:16.957Z,22.17
2018-03-22T07:49:44.493Z,21.70
2018-03-22T07:52:12.407Z,20.27
2018-03-22T07:54:39.979Z,21.33
2018-03-22T07:57:07.577Z,23.20
2018-03-22T07:59:35.116Z,21.57
2018-03-22T08:02:02.769Z,21.63
2018-03-22T08:04:30.613Z,21.77
2018-03-22T08:06:58.149Z,19.13
2018-03-22T08:09:25.693Z,20.40
2018-03-22T08:11:53.607Z,20.60
2018-03-22T08:14:21.133Z,20.40
2018-03-22T08:16:48.747Z,19.70
2018-03-22T08:19:16.276Z,19.50
2018-03-22T08:21:43.877Z,20.37
2018-03-22T08:24:11.427Z,20.00
2018-03-22T08:26:38.977Z,19.50
2018-03-22T08:29:06.508Z,20.30
2018-03-22T08:31:34.104Z,22.00
2018-03-22T08:34:01.721Z,20.40
2018-03-22T08:36:29.461Z,19.37
2018-03-22T08:38:57.011Z,21.90
2018-03-22T08:41:24.584Z,20.97
2018-03-22T08:43:52.083Z,21.73
2018-03-22T08:46:19.619Z,22.00
2018-03-22T08:48:47.127Z,22.83
2018-03-22T08:51:14.629Z,22.20
2018-03-22T08:53:42.163Z,23.27
2018-03-22T08:56:09.680Z,23.37
2018-03-22T08:58:37.217Z,21.90
2018-03-22T09:01:04.811Z,23.30
2018-03-22T09:03:32.341Z,24.33
2018-03-22T09:05:59.863Z,25.50
2018-03-22T09:08:27.411Z,23.80
2018-03-22T09:10:54.993Z,23.80
2018-03-22T09:13:22.496Z,24.97
2018-03-22T09:15:50.068Z,24.40
2018-03-22T09:18:17.592Z,24.80
2018-03-22T09:20:45.431Z,26.30
2018-03-22T09:23:12.988Z,26.10
2018-03-22T09:25:40.836Z,23.30
2018-03-22T09:28:08.355Z,26.20
2018-03-22T09:30:35.902Z,25.10
2018-03-22T09:33:03.460Z,26.27
2018-03-22T09:35:30.996Z,27.53
2018-03-22T09:37:58.515Z,26.53
2018-03-22T09:40:27.436Z,26.47
2018-03-22T09:42:54.977Z,28.07
2018-03-22T09:45:22.539Z,28.47
2018-03-22T09:47:50.320Z,27.73
2018-03-22T09:50:17.820Z,28.50
2018-03-22T09:52:45.644Z,30.27
2018-03-22T09:55:13.151Z,29.17
2018-03-22T09:57:40.708Z,29.47
2018-03-22T10:00:08.343Z,30.70
2018-03-22T10:02:37.018Z,30.50
2018-03-22T10:05:04.562Z,33.07
2018-03-22T10:07:32.120Z,31.10
2018-03-22T10:09:59.736Z,29.60
2018-03-22T10:12:27.260Z,31.30
2018-03-22T10:14:54.814Z,32.00
2018-03-22T10:17:22.557Z,33.03
2018-03-22T10:19:50.158Z,29.40
2018-03-22T10:22:17.702Z,33.87
2018-03-22T10:24:45.227Z,33.80
2018-03-22T10:27:12.744Z,32.10
2018-03-22T10:29:40.283Z,32.77
2018-03-22T10:32:07.858Z,32.50
2018-03-22T10:34:35.371Z,33.97
2018-03-22T10:37:02.979Z,34.43
2018-03-22T10:39:30.615Z,34.60
2018-03-22T10:41:58.156Z,33.93
2018-03-22T10:44:25.721Z,34.67
2018-03-22T10:46:53.241Z,36.30
2018-03-22T10:49:20.784Z,35.63
2018-03-22T10:51:48.365Z,34.23
2018-03-22T10:54:16.728Z,35.30
2018-03-22T10:56:44.295Z,35.30
2018-03-22T10:59:12.241Z,35.37
2018-03-22T11:01:45.285Z,33.27
2018-03-22T11:04:12.825Z,33.00
2018-03-22T11:06:46.411Z,33.90
2018-03-22T11:09:13.967Z,35.40
2018-03-22T11:11:41.510Z,33.23
2018-03-22T11:14:09.046Z,35.40
2018-03-22T11:16:36.937Z,37.20
2018-03-22T11:19:04.799Z,35.20
2018-03-22T11:21:32.317Z,34.67
2018-03-22T11:23:59.871Z,36.60
2018-03-22T11:26:27.414Z,36.70
2018-03-22T11:28:55.251Z,35.93
2018-03-22T11:31:22.816Z,38.10
2018-03-22T11:33:50.565Z,33.20
2018-03-22T11:36:18.349Z,36.90
2018-03-22T11:38:45.881Z,38.60
2018-03-22T11:41:13.414Z,38.27
2018-03-22T11:43:41.234Z,38.93
2018-03-22T11:46:09.009Z,37.00
2018-03-22T11:48:36.529Z,36.20
2018-03-22T11:51:04.428Z,39.53
2018-03-22T11:53:31.968Z,35.93
2018-03-22T11:55:59.465Z,35.67
2018-03-22T11:58:27.005Z,37.77
2018-03-22T12:00:54.541Z,35.53
2018-03-22T12:03:22.108Z,38.23
2018-03-22T12:05:49.848Z,36.10
2018-03-22T12:08:17.380Z,37.47
2018-03-22T12:10:45.122Z,34.73
2018-03-22T12:13:12.669Z,37.30
2018-03-22T12:15:40.210Z,35.40
2018-03-22T12:18:07.722Z,35.67
2018-03-22T12:20:35.238Z,35.20
2018-03-22T12:23:02.766Z,35.90
2018-03-22T12:25:30.281Z,35.00
2018-03-22T12:27:58.045Z,35.27
2018-03-22T12:30:25.592Z,35.17
2018-03-22T12:32:53.369Z,32.73
2018-03-22T12:35:20.881Z,37.90
2018-03-22T12:37:48.803Z,35.20
2018-03-22T12:40:16.303Z,35.47
2018-03-22T12:42:43.814Z,34.80
2018-03-22T12:45:11.347Z,34.67
2018-03-22T12:47:39.145Z,33.80
2018-03-22T12:50:06.644Z,33.90
2018-03-22T12:52:34.172Z,35.50
2018-03-22T12:55:02.127Z,33.30
2018-03-22T12:57:29.663Z,33.77
2018-03-22T12:59:57.250Z,31.30
2018-03-22T13:02:25.028Z,34.87
2018-03-22T13:04:52.575Z,33.60
2018-03-22T13:07:20.155Z,31.23
2018-03-22T13:09:47.765Z,32.20
2018-03-22T13:12:15.417Z,32.50
2018-03-22T13:14:43.006Z,37.03
2018-03-22T13:17:10.535Z,33.33
2018-03-22T13:19:38.289Z,33.57
2018-03-22T13:22:05.909Z,34.00
2018-03-22T13:24:33.541Z,32.87
2018-03-22T13:27:01.065Z,33.10
2018-03-22T13:29:28.623Z,32.07
2018-03-22T13:31:56.138Z,30.40
2018-03-22T13:34:23.862Z,33.30
2018-03-22T13:36:51.756Z,31.83
2018-03-22T13:39:19.345Z,30.90
2018-03-22T13:41:46.864Z,31.50
2018-03-22T13:44:15.120Z,33.80
2018-03-22T13:46:42.964Z,29.43
2018-03-22T13:49:10.516Z,28.40
2018-03-22T13:51:38.125Z,29.47
2018-03-22T13:54:05.681Z,28.57
2018-03-22T13:56:33.628Z,29.20
2018-03-22T13:59:01.613Z,26.70
2018-03-22T14:01:29.140Z,28.80
2018-03-22T14:03:56.656Z,29.97
2018-03-22T14:06:24.260Z,26.90
2018-03-22T14:08:51.844Z,27.77
2018-03-22T14:11:19.353Z,28.83
2018-03-22T14:13:46.927Z,30.60
2018-03-22T14:16:14.481Z,27.50
2018-03-22T14:18:42.046Z,28.03
2018-03-22T14:21:09.580Z,29.90
2018-03-22T14:23:37.121Z,28.73
2018-03-22T14:26:04.952Z,28.53
2018-03-22T14:28:32.601Z,28.13
2018-03-22T14:31:00.108Z,27.30
2018-03-22T14:33:27.724Z,28.60
2018-03-22T14:35:55.264Z,27.43
2018-03-22T14:38:22.810Z,25.57
2018-03-22T14:40:50.342Z,26.33
2018-03-22T14:43:17.900Z,27.00
2018-03-22T14:45:45.431Z,25.10
2018-03-22T14:48:12.962Z,26.20
2018-03-22T14:50:41.101Z,27.57
2018-03-22T14:53:08.622Z,27.00
2018-03-22T14:55:36.154Z,28.97
2018-03-22T14:58:03.693Z,29.00
2018-03-22T15:00:31.273Z,27.37
2018-03-22T15:02:58.835Z,27.00
2018-03-22T15:05:26.432Z,28.13
2018-03-22T15:07:53.970Z,26.77
2018-03-22T15:10:21.634Z,27.07
2018-03-22T15:12:49.133Z,27.93
2018-03-22T15:15:16.696Z,27.20
2018-03-22T15:17:44.230Z,28.33
2018-03-22T15:20:11.997Z,28.20
2018-03-22T15:22:39.524Z,27.23
2018-03-22T15:25:07.040Z,26.57
2018-03-22T15:27:34.605Z,26.60
2018-03-22T15:30:02.129Z,26.77
2018-03-22T15:32:29.734Z,26.80
2018-03-22T15:34:57.305Z,26.37
2018-03-22T15:37:24.820Z,27.07
2018-03-22T15:39:52.696Z,27.23
2018-03-22T15:42:20.242Z,27.80
2018-03-22T15:44:47.801Z,28.03
2018-03-22T15:47:15.328Z,28.53
2018-03-22T15:49:42.849Z,27.10
2018-03-22T15:52:10.397Z,28.00
2018-03-22T15:54:37.956Z,26.73
2018-03-22T15:57:05.491Z,26.97
2018-03-22T15:59:33.205Z,29.20
2018-03-22T16:02:00.727Z,26.00
2018-03-22T16:04:28.556Z,27.87
2018-03-22T16:06:56.039Z,27.30
2018-03-22T16:09:23.548Z,28.63
2018-03-22T16:11:51.468Z,25.73
2018-03-22T16:14:19.260Z,27.30
2018-03-22T16:16:46.818Z,26.00
2018-03-22T16:19:14.531Z,26.37
2018-03-22T16:21:42.153Z,27.37
2018-03-22T16:24:09.691Z,26.40
2018-03-22T16:26:37.263Z,27.53
2018-03-22T16:29:04.797Z,26.77
2018-03-22T16:31:32.320Z,26.23
2018-03-22T16:33:59.860Z,27.53
2018-03-22T16:36:27.384Z,26.17
2018-03-22T16:38:54.894Z,27.67
2018-03-22T16:41:22.464Z,27.40
2018-03-22T16:43:50.019Z,29.33
2018-03-22T16:46:17.563Z,29.43
2018-03-22T16:48:45.182Z,29.67
2018-03-22T16:51:12.890Z,28.03
2018-03-22T16:53:40.435Z,29.57
2018-03-22T16:56:07.984Z,28.20
2018-03-22T16:58:35.641Z,29.67
2018-03-22T17:01:03.145Z,29.50
2018-03-22T17:03:30.931Z,27.87
2018-03-22T17:05:58.446Z,27.60
2018-03-22T17:08:26.212Z,28.93
2018-03-22T17:10:53.749Z,27.63
2018-03-22T17:13:21.261Z,27.97
2018-03-22T17:15:48.772Z,30.77
2018-03-22T17:18:16.394Z,29.00
2018-03-22T17:20:43.913Z,27.80
2018-03-22T17:23:11.411Z,29.60
2018-03-22T17:25:39.010Z,28.10
2018-03-22T17:28:06.533Z,29.20
2018-03-22T17:30:34.054Z,28.23
2018-03-22T17:33:01.607Z,29.20
2018-03-22T17:35:29.383Z,28.40
2018-03-22T17:37:56.955Z,29.33
2018-03-22T17:40:24.502Z,28.33
2018-03-22T17:42:52.013Z,29.07
2018-03-22T17:45:19.828Z,31.60
2018-03-22T17:47:47.360Z,29.37
2018-03-22T17:50:14.858Z,29.67
2018-03-22T17:52:42.365Z,29.93
2018-03-22T17:55:09.966Z,30.17
2018-03-22T17:57:37.754Z,30.53
2018-03-22T18:00:06.821Z,31.13
2018-03-22T18:02:34.413Z,30.97
2018-03-22T18:05:01.937Z,31.57
2018-03-22T18:07:29.490Z,31.50
2018-03-22T18:09:57.070Z,30.20
2018-03-22T18:12:24.657Z,29.63
2018-03-22T18:14:52.252Z,31.90
2018-03-22T18:17:20.407Z,30.07
2018-03-22T18:19:47.917Z,32.37
2018-03-22T18:22:15.446Z,32.67
2018-03-22T18:24:43.067Z,31.40
2018-03-22T18:27:10.629Z,33.10
2018-03-22T18:29:38.198Z,34.17
2018-03-22T18:32:06.155Z,34.17
2018-03-22T18:34:33.716Z,33.30
2018-03-22T18:37:01.348Z,33.87
2018-03-22T18:39:28.950Z,31.73
2018-03-22T18:41:56.469Z,34.87
2018-03-22T18:44:24.178Z,34.50
2018-03-22T18:46:51.858Z,34.53
2018-03-22T18:49:19.406Z,32.97
2018-03-22T18:51:46.948Z,32.90
2018-03-22T18:54:15.136Z,32.40
2018-03-22T18:56:42.709Z,31.20
2018-03-22T18:59:10.326Z,34.20
2018-03-22T19:01:37.905Z,32.20
2018-03-22T19:04:05.415Z,33.00
2018-03-22T19:06:32.944Z,33.50
2018-03-22T19:09:00.533Z,33.57
2018-03-22T19:11:28.185Z,33.23
2018-03-22T19:13:55.918Z,33.93
2018-03-22T19:16:23.484Z,32.90
2018-03-22T19:18:51.178Z,31.40
2018-03-22T19:21:18.813Z,32.40
2018-03-22T19:23:46.376Z,32.27
2018-03-22T19:26:13.996Z,32.10
2018-03-22T19:28:41.601Z,34.07
2018-03-22T19:31:09.243Z,33.67
2018-03-22T19:33:36.772Z,33.40
2018-03-22T19:36:04.927Z,34.03
2018-03-22T19:38:32.506Z,33.80
2018-03-22T19:41:00.045Z,31.67
2018-03-22T19:43:27.686Z,32.77
2018-03-22T19:45:55.263Z,32.07
2018-03-22T19:48:22.830Z,33.10
2018-03-22T19:50:50.361Z,33.13
2018-03-22T19:53:17.928Z,34.60
2018-03-22T19:55:45.532Z,34.80
2018-03-22T19:58:13.047Z,35.93
2018-03-22T20:00:40.607Z,33.00
2018-03-22T20:03:08.197Z,34.47
2018-03-22T20:05:35.811Z,34.17
2018-03-22T20:08:03.332Z,35.07
2018-03-22T20:10:30.882Z,34.50
2018-03-22T20:12:58.915Z,35.40
2018-03-22T20:15:27.022Z,33.63
2018-03-22T20:17:55.122Z,34.30
2018-03-22T20:20:22.679Z,35.80
2018-03-22T20:22:50.267Z,35.60
2018-03-22T20:25:18.206Z,35.23
2018-03-22T20:27:45.710Z,38.07
2018-03-22T20:30:13.312Z,38.17
2018-03-22T20:32:42.061Z,36.70
2018-03-22T20:35:09.630Z,38.07
2018-03-22T20:37:37.491Z,40.23
2018-03-22T20:40:05.158Z,38.53
2018-03-22T20:42:32.732Z,37.73
2018-03-22T20:45:00.295Z,39.80
2018-03-22T20:47:28.345Z,39.97
2018-03-22T20:49:55.967Z,40.33
2018-03-22T20:52:23.532Z,39.87
2018-03-22T20:54:51.291Z,37.10
2018-03-22T20:57:19.024Z,37.07
2018-03-22T20:59:46.593Z,38.20
2018-03-22T21:02:14.131Z,37.40
2018-03-22T21:04:41.659Z,35.23
2018-03-22T21:07:09.379Z,36.03
2018-03-22T21:09:37.009Z,36.50
2018-03-22T21:12:04.543Z,34.90
2018-03-22T21:14:32.112Z,33.33
2018-03-22T21:16:59.824Z,36.90
2018-03-22T21:19:28.100Z,35.03
2018-03-22T21:21:55.685Z,33.43
2018-03-22T21:24:23.198Z,32.43
2018-03-22T21:26:50.825Z,32.17
2018-03-22T21:29:18.607Z,32.87
2018-03-22T21:31:46.147Z,33.13
2018-03-22T21:34:13.956Z,31.73
2018-03-22T21:36:41.515Z,32.93
2018-03-22T21:39:09.079Z,32.33
2018-03-22T21:41:36.701Z,32.10
2018-03-22T21:44:16.458Z,31.03
2018-03-22T21:46:44.060Z,31.70
2018-03-22T21:49:12.270Z,30.70
2018-03-22T21:51:39.804Z,31.07
2018-03-22T21:54:07.439Z,31.23
2018-03-22T21:56:35.289Z,31.80
2018-03-22T21:59:02.864Z,30.67
2018-03-22T22:01:30.667Z,29.90
2018-03-22T22:03:58.201Z,32.83
2018-03-22T22:06:27.680Z,29.77
2018-03-22T22:08:55.561Z,31.90
2018-03-22T22:11:23.136Z,29.73
2018-03-22T22:13:51.075Z,29.30
2018-03-22T22:16:18.723Z,29.80
2018-03-22T22:18:46.477Z,29.47
2018-03-22T22:21:14.090Z,30.30
2018-03-22T22:23:42.632Z,28.73
2018-03-22T22:26:10.180Z,28.97
2018-03-22T22:28:38.592Z,30.00
2018-03-22T22:31:06.164Z,28.63
2018-03-22T22:33:33.751Z,27.50
2018-03-22T22:36:01.423Z,28.00
2018-03-22T22:38:29.273Z,28.60
2018-03-22T22:40:56.797Z,27.60
2018-03-22T22:43:24.442Z,27.07
2018-03-22T22:45:51.962Z,26.63
2018-03-22T22:48:19.551Z,25.97
2018-03-22T22:50:47.140Z,25.87
2018-03-22T22:53:14.658Z,25.30
2018-03-22T22:55:42.162Z,25.27
2018-03-22T22:58:09.706Z,27.00
2018-03-22T23:00:37.231Z,26.20
2018-03-22T23:03:04.779Z,27.80
2018-03-22T23:05:32.431Z,26.73
2018-03-22T23:08:00.279Z,26.80
2018-03-22T23:10:27.796Z,27.00
2018-03-22T23:12:55.351Z,26.60
2018-03-22T23:15:22.877Z,25.53
2018-03-22T23:17:50.424Z,25.93
2018-03-22T23:20:18.057Z,25.07
2018-03-22T23:22:45.606Z,27.07
2018-03-22T23:25:13.123Z,24.73
2018-03-22T23:27:40.648Z,24.00
2018-03-22T23:30:08.178Z,24.90
2018-03-22T23:32:35.693Z,24.80
2018-03-22T23:35:03.249Z,24.93
2018-03-22T23:37:30.771Z,25.47
2018-03-22T23:39:58.281Z,24.77
2018-03-22T23:42:25.816Z,24.40
2018-03-22T23:44:53.332Z,25.10
2018-03-22T23:47:21.176Z,22.70
2018-03-22T23:49:48.757Z,22.30
2018-03-22T23:52:16.297Z,23.20
2018-03-22T23:54:43.809Z,24.13
2018-03-22T23:57:11.845Z,22.77
2018-03-22T23:59:39.247Z,24.27
